sensor_id;sensor_type;location;lat;lon;timestamp;pressure;altitude;pressure_sealevel;temperature;humidity
57594;BME280;43423;46.510;6.686;2023-07-29T00:01:22;96136.34;;;22.83;55.71
57594;BME280;43423;46.510;6.686;2023-07-29T00:03:47;96191.03;;;22.60;58.55
57594;BME280;43423;46.510;6.686;2023-07-29T00:06:13;96253.78;;;21.34;76.40
57594;BME280;43423;46.510;6.686;2023-07-29T00:08:39;96229.44;;;19.98;80.09
57594;BME280;43423;46.510;6.686;2023-07-29T00:11:07;96181.72;;;20.09;86.40
57594;BME280;43423;46.510;6.686;2023-07-29T00:13:32;96166.56;;;20.33;88.31
57594;BME280;43423;46.510;6.686;2023-07-29T00:15:58;96148.81;;;19.87;87.41
57594;BME280;43423;46.510;6.686;2023-07-29T00:18:24;96144.94;;;19.90;90.13
57594;BME280;43423;46.510;6.686;2023-07-29T00:20:49;96122.31;;;20.01;89.04
57594;BME280;43423;46.510;6.686;2023-07-29T00:23:17;96115.03;;;19.98;88.60
57594;BME280;43423;46.510;6.686;2023-07-29T00:25:44;96122.91;;;20.07;88.58
57594;BME280;43423;46.510;6.686;2023-07-29T00:28:11;96108.78;;;20.13;87.92
57594;BME280;43423;46.510;6.686;2023-07-29T00:30:37;96104.25;;;20.02;86.13
57594;BME280;43423;46.510;6.686;2023-07-29T00:33:03;96103.44;;;19.86;88.74
57594;BME280;43423;46.510;6.686;2023-07-29T00:35:29;96106.53;;;19.75;91.06
57594;BME280;43423;46.510;6.686;2023-07-29T00:37:54;96114.13;;;20.03;87.47
57594;BME280;43423;46.510;6.686;2023-07-29T00:40:21;96115.09;;;20.13;90.68
57594;BME280;43423;46.510;6.686;2023-07-29T00:42:47;96110.84;;;20.20;91.76
57594;BME280;43423;46.510;6.686;2023-07-29T00:45:13;96117.84;;;20.42;87.92
57594;BME280;43423;46.510;6.686;2023-07-29T00:47:39;96116.66;;;20.29;87.55
57594;BME280;43423;46.510;6.686;2023-07-29T00:50:09;96113.59;;;20.12;89.79
57594;BME280;43423;46.510;6.686;2023-07-29T00:52:34;96121.28;;;20.19;89.04
57594;BME280;43423;46.510;6.686;2023-07-29T00:55:01;96117.59;;;20.24;88.03
57594;BME280;43423;46.510;6.686;2023-07-29T00:57:26;96110.53;;;20.31;86.67
57594;BME280;43423;46.510;6.686;2023-07-29T00:59:55;96125.44;;;20.33;88.55
57594;BME280;43423;46.510;6.686;2023-07-29T01:02:21;96120.44;;;20.40;87.95
57594;BME280;43423;46.510;6.686;2023-07-29T01:04:55;96124.72;;;20.41;89.63
57594;BME280;43423;46.510;6.686;2023-07-29T01:07:27;96123.81;;;20.46;88.94
57594;BME280;43423;46.510;6.686;2023-07-29T01:13:06;96120.41;;;20.32;91.36
57594;BME280;43423;46.510;6.686;2023-07-29T01:18:31;96113.44;;;20.61;89.99
57594;BME280;43423;46.510;6.686;2023-07-29T01:21:03;96117.16;;;20.49;91.13
57594;BME280;43423;46.510;6.686;2023-07-29T01:23:33;96127.75;;;20.50;91.47
57594;BME280;43423;46.510;6.686;2023-07-29T01:25:59;96123.81;;;20.46;94.80
57594;BME280;43423;46.510;6.686;2023-07-29T01:28:25;96140.16;;;20.34;94.59
57594;BME280;43423;46.510;6.686;2023-07-29T01:31:02;96133.84;;;20.41;90.23
57594;BME280;43423;46.510;6.686;2023-07-29T01:33:35;96125.38;;;20.54;93.10
57594;BME280;43423;46.510;6.686;2023-07-29T01:36:12;96119.03;;;20.54;91.30
57594;BME280;43423;46.510;6.686;2023-07-29T01:38:41;96115.16;;;20.65;90.71
57594;BME280;43423;46.510;6.686;2023-07-29T01:41:08;96114.59;;;20.66;90.25
57594;BME280;43423;46.510;6.686;2023-07-29T01:43:34;96114.72;;;20.53;92.64
57594;BME280;43423;46.510;6.686;2023-07-29T01:46:05;96129.47;;;20.61;92.28
57594;BME280;43423;46.510;6.686;2023-07-29T01:48:30;96127.28;;;20.31;95.56
57594;BME280;43423;46.510;6.686;2023-07-29T01:50:57;96122.69;;;20.41;95.14
57594;BME280;43423;46.510;6.686;2023-07-29T01:53:23;96135.41;;;20.50;91.92
57594;BME280;43423;46.510;6.686;2023-07-29T01:55:49;96128.91;;;20.55;94.15
57594;BME280;43423;46.510;6.686;2023-07-29T01:58:14;96122.00;;;20.48;92.47
57594;BME280;43423;46.510;6.686;2023-07-29T02:00:40;96127.50;;;20.41;95.09
57594;BME280;43423;46.510;6.686;2023-07-29T02:03:05;96125.13;;;20.45;93.96
57594;BME280;43423;46.510;6.686;2023-07-29T02:05:32;96123.13;;;20.60;91.52
57594;BME280;43423;46.510;6.686;2023-07-29T02:07:57;96109.00;;;20.66;91.89
57594;BME280;43423;46.510;6.686;2023-07-29T02:10:23;96120.72;;;20.57;92.37
57594;BME280;43423;46.510;6.686;2023-07-29T02:12:48;96110.75;;;20.41;93.73
57594;BME280;43423;46.510;6.686;2023-07-29T02:15:14;96111.94;;;20.60;90.29
57594;BME280;43423;46.510;6.686;2023-07-29T02:17:41;96119.25;;;20.27;92.50
57594;BME280;43423;46.510;6.686;2023-07-29T02:20:08;96127.47;;;20.33;92.68
57594;BME280;43423;46.510;6.686;2023-07-29T02:22:33;96125.91;;;20.53;94.32
57594;BME280;43423;46.510;6.686;2023-07-29T02:24:59;96123.78;;;20.38;94.26
57594;BME280;43423;46.510;6.686;2023-07-29T02:27:26;96125.94;;;20.17;92.97
57594;BME280;43423;46.510;6.686;2023-07-29T02:29:53;96117.00;;;20.18;95.60
57594;BME280;43423;46.510;6.686;2023-07-29T02:32:19;96117.59;;;20.24;95.02
57594;BME280;43423;46.510;6.686;2023-07-29T02:34:45;96128.25;;;20.41;93.97
57594;BME280;43423;46.510;6.686;2023-07-29T02:37:10;96130.56;;;20.50;92.86
57594;BME280;43423;46.510;6.686;2023-07-29T02:39:36;96124.16;;;20.42;91.99
57594;BME280;43423;46.510;6.686;2023-07-29T02:42:02;96132.41;;;20.48;91.64
57594;BME280;43423;46.510;6.686;2023-07-29T02:44:28;96131.50;;;20.60;92.63
57594;BME280;43423;46.510;6.686;2023-07-29T02:46:54;96126.22;;;20.42;93.12
57594;BME280;43423;46.510;6.686;2023-07-29T02:49:21;96125.34;;;20.47;92.90
57594;BME280;43423;46.510;6.686;2023-07-29T02:51:47;96124.41;;;20.52;92.14
57594;BME280;43423;46.510;6.686;2023-07-29T02:54:13;96120.72;;;20.57;91.41
57594;BME280;43423;46.510;6.686;2023-07-29T02:56:38;96118.69;;;20.65;91.53
57594;BME280;43423;46.510;6.686;2023-07-29T02:59:04;96123.50;;;20.57;92.75
57594;BME280;43423;46.510;6.686;2023-07-29T03:01:30;96123.88;;;20.61;92.36
57594;BME280;43423;46.510;6.686;2023-07-29T03:03:56;96131.50;;;20.60;93.34
57594;BME280;43423;46.510;6.686;2023-07-29T03:06:21;96128.69;;;20.53;93.05
57594;BME280;43423;46.510;6.686;2023-07-29T03:08:47;96133.00;;;20.54;90.94
57594;BME280;43423;46.510;6.686;2023-07-29T03:11:14;96131.69;;;20.55;93.60
57594;BME280;43423;46.510;6.686;2023-07-29T03:13:40;96137.28;;;20.55;93.43
57594;BME280;43423;46.510;6.686;2023-07-29T03:16:14;96130.75;;;20.52;93.42
57594;BME280;43423;46.510;6.686;2023-07-29T03:18:40;96124.97;;;20.50;94.40
57594;BME280;43423;46.510;6.686;2023-07-29T03:21:06;96131.06;;;20.41;95.97
57594;BME280;43423;46.510;6.686;2023-07-29T03:23:33;96126.44;;;20.44;95.15
57594;BME280;43423;46.510;6.686;2023-07-29T03:26:00;96123.06;;;20.45;95.13
57594;BME280;43423;46.510;6.686;2023-07-29T03:28:27;96126.91;;;20.27;96.36
57594;BME280;43423;46.510;6.686;2023-07-29T03:30:54;96137.38;;;20.42;93.93
57594;BME280;43423;46.510;6.686;2023-07-29T03:33:19;96121.31;;;20.27;96.97
57594;BME280;43423;46.510;6.686;2023-07-29T03:35:45;96120.44;;;20.40;96.25
57594;BME280;43423;46.510;6.686;2023-07-29T03:38:11;96103.31;;;20.43;95.36
57594;BME280;43423;46.510;6.686;2023-07-29T03:40:40;96106.41;;;20.24;96.08
57594;BME280;43423;46.510;6.686;2023-07-29T03:43:07;96107.69;;;20.16;96.37
57594;BME280;43423;46.510;6.686;2023-07-29T03:45:33;96123.88;;;20.17;94.90
57594;BME280;43423;46.510;6.686;2023-07-29T03:47:59;96123.94;;;20.32;94.41
57594;BME280;43423;46.510;6.686;2023-07-29T03:50:26;96123.38;;;20.34;95.35
57594;BME280;43423;46.510;6.686;2023-07-29T03:52:51;96123.41;;;20.42;92.90
57594;BME280;43423;46.510;6.686;2023-07-29T03:55:17;96134.72;;;20.28;96.24
57594;BME280;43423;46.510;6.686;2023-07-29T03:57:43;96130.88;;;20.39;94.44
57594;BME280;43423;46.510;6.686;2023-07-29T04:00:09;96131.94;;;20.36;94.61
57594;BME280;43423;46.510;6.686;2023-07-29T04:02:36;96128.13;;;20.47;95.16
57594;BME280;43423;46.510;6.686;2023-07-29T04:05:05;96133.91;;;20.49;92.84
57594;BME280;43423;46.510;6.686;2023-07-29T04:07:34;96134.56;;;20.34;93.92
57594;BME280;43423;46.510;6.686;2023-07-29T04:10:01;96135.91;;;20.41;92.68
57594;BME280;43423;46.510;6.686;2023-07-29T04:12:27;96134.97;;;20.38;94.88
57594;BME280;43423;46.510;6.686;2023-07-29T04:14:52;96142.38;;;20.35;93.13
57594;BME280;43423;46.510;6.686;2023-07-29T04:17:18;96146.72;;;20.44;92.54
57594;BME280;43423;46.510;6.686;2023-07-29T04:19:44;96144.47;;;20.43;93.40
57594;BME280;43423;46.510;6.686;2023-07-29T04:22:09;96154.94;;;20.50;92.53
57594;BME280;43423;46.510;6.686;2023-07-29T04:24:35;96163.63;;;20.39;94.75
57594;BME280;43423;46.510;6.686;2023-07-29T04:27:01;96168.09;;;20.42;93.33
57594;BME280;43423;46.510;6.686;2023-07-29T04:29:26;96171.69;;;20.50;93.04
57594;BME280;43423;46.510;6.686;2023-07-29T04:31:52;96172.19;;;20.41;93.10
57594;BME280;43423;46.510;6.686;2023-07-29T04:34:18;96181.22;;;20.54;93.17
57594;BME280;43423;46.510;6.686;2023-07-29T04:36:48;96183.25;;;20.46;96.14
57594;BME280;43423;46.510;6.686;2023-07-29T04:39:13;96178.22;;;20.52;94.07
57594;BME280;43423;46.510;6.686;2023-07-29T04:41:39;96183.84;;;20.60;95.79
57594;BME280;43423;46.510;6.686;2023-07-29T04:44:05;96182.53;;;20.61;96.56
57594;BME280;43423;46.510;6.686;2023-07-29T04:46:31;96183.66;;;20.58;96.19
57594;BME280;43423;46.510;6.686;2023-07-29T04:48:56;96187.22;;;20.66;96.01
57594;BME280;43423;46.510;6.686;2023-07-29T04:51:22;96182.00;;;20.62;97.24
57594;BME280;43423;46.510;6.686;2023-07-29T04:53:47;96176.97;;;20.69;97.89
57594;BME280;43423;46.510;6.686;2023-07-29T04:56:13;96174.19;;;20.69;98.09
57594;BME280;43423;46.510;6.686;2023-07-29T04:58:38;96174.25;;;20.91;97.15
57594;BME280;43423;46.510;6.686;2023-07-29T05:01:04;96173.25;;;20.66;99.25
57594;BME280;43423;46.510;6.686;2023-07-29T05:03:30;96164.00;;;20.86;97.19
57594;BME280;43423;46.510;6.686;2023-07-29T05:05:56;96167.91;;;20.83;97.02
57594;BME280;43423;46.510;6.686;2023-07-29T05:08:22;96171.66;;;20.94;96.30
57594;BME280;43423;46.510;6.686;2023-07-29T05:10:49;96174.25;;;20.91;96.30
57594;BME280;43423;46.510;6.686;2023-07-29T05:13:15;96179.06;;;20.83;96.68
57594;BME280;43423;46.510;6.686;2023-07-29T05:15:40;96178.31;;;20.75;97.77
57594;BME280;43423;46.510;6.686;2023-07-29T05:18:06;96177.38;;;20.73;98.69
57594;BME280;43423;46.510;6.686;2023-07-29T05:20:32;96174.22;;;20.76;98.92
57594;BME280;43423;46.510;6.686;2023-07-29T05:22:57;96165.81;;;20.76;98.75
57594;BME280;43423;46.510;6.686;2023-07-29T05:25:23;96172.94;;;20.92;97.47
57594;BME280;43423;46.510;6.686;2023-07-29T05:27:48;96166.63;;;20.92;96.73
57594;BME280;43423;46.510;6.686;2023-07-29T05:30:14;96166.06;;;21.01;97.15
57594;BME280;43423;46.510;6.686;2023-07-29T05:32:39;96157.91;;;21.11;97.28
57594;BME280;43423;46.510;6.686;2023-07-29T05:35:05;96157.19;;;21.26;95.41
57594;BME280;43423;46.510;6.686;2023-07-29T05:37:31;96156.97;;;21.08;96.05
57594;BME280;43423;46.510;6.686;2023-07-29T05:39:56;96170.03;;;21.21;96.55
57594;BME280;43423;46.510;6.686;2023-07-29T05:42:22;96172.88;;;21.29;96.25
57594;BME280;43423;46.510;6.686;2023-07-29T05:44:47;96164.66;;;21.31;96.71
57594;BME280;43423;46.510;6.686;2023-07-29T05:47:13;96168.59;;;21.35;96.20
57594;BME280;43423;46.510;6.686;2023-07-29T05:49:38;96169.16;;;21.57;93.72
57594;BME280;43423;46.510;6.686;2023-07-29T05:52:04;96169.69;;;21.63;92.68
57594;BME280;43423;46.510;6.686;2023-07-29T05:54:30;96171.75;;;21.70;93.49
57594;BME280;43423;46.510;6.686;2023-07-29T05:56:55;96169.91;;;21.57;88.35
57594;BME280;43423;46.510;6.686;2023-07-29T05:59:21;96160.72;;;21.87;86.63
57594;BME280;43423;46.510;6.686;2023-07-29T06:01:46;96168.19;;;21.92;88.42
57594;BME280;43423;46.510;6.686;2023-07-29T06:04:12;96166.09;;;22.31;82.89
57594;BME280;43423;46.510;6.686;2023-07-29T06:06:37;96177.50;;;22.18;82.76
57594;BME280;43423;46.510;6.686;2023-07-29T06:09:03;96184.50;;;22.49;84.00
57594;BME280;43423;46.510;6.686;2023-07-29T06:11:28;96190.00;;;22.17;85.71
57594;BME280;43423;46.510;6.686;2023-07-29T06:13:54;96185.16;;;21.87;90.32
57594;BME280;43423;46.510;6.686;2023-07-29T06:16:20;96190.75;;;22.25;87.63
57594;BME280;43423;46.510;6.686;2023-07-29T06:18:45;96193.91;;;22.29;85.05
57594;BME280;43423;46.510;6.686;2023-07-29T06:21:11;96197.31;;;22.12;85.61
57594;BME280;43423;46.510;6.686;2023-07-29T06:23:43;96194.88;;;22.16;85.11
57594;BME280;43423;46.510;6.686;2023-07-29T06:26:09;96192.16;;;22.49;86.55
57594;BME280;43423;46.510;6.686;2023-07-29T06:28:34;96184.44;;;22.65;84.82
57594;BME280;43423;46.510;6.686;2023-07-29T06:31:00;96190.56;;;22.15;83.94
57594;BME280;43423;46.510;6.686;2023-07-29T06:33:25;96194.44;;;22.35;86.31
57594;BME280;43423;46.510;6.686;2023-07-29T06:35:51;96204.56;;;22.00;87.72
57594;BME280;43423;46.510;6.686;2023-07-29T06:38:16;96199.72;;;21.93;87.43
57594;BME280;43423;46.510;6.686;2023-07-29T06:40:55;96201.59;;;22.21;85.31
57594;BME280;43423;46.510;6.686;2023-07-29T06:43:21;96193.19;;;22.21;87.18
57594;BME280;43423;46.510;6.686;2023-07-29T06:45:46;96195.59;;;22.01;86.83
57594;BME280;43423;46.510;6.686;2023-07-29T06:48:12;96199.53;;;22.29;81.68
57594;BME280;43423;46.510;6.686;2023-07-29T06:50:37;96186.47;;;22.09;85.75
57594;BME280;43423;46.510;6.686;2023-07-29T06:53:03;96189.63;;;22.28;84.87
57594;BME280;43423;46.510;6.686;2023-07-29T06:55:29;96186.66;;;21.80;87.11
57594;BME280;43423;46.510;6.686;2023-07-29T06:57:54;96177.53;;;21.80;88.74
57594;BME280;43423;46.510;6.686;2023-07-29T07:00:20;96175.84;;;22.15;89.47
57594;BME280;43423;46.510;6.686;2023-07-29T07:02:46;96184.22;;;22.15;85.28
57594;BME280;43423;46.510;6.686;2023-07-29T07:05:11;96191.69;;;22.05;87.19
57594;BME280;43423;46.510;6.686;2023-07-29T07:07:37;96177.56;;;22.58;84.04
57594;BME280;43423;46.510;6.686;2023-07-29T07:10:03;96187.00;;;22.78;81.22
57594;BME280;43423;46.510;6.686;2023-07-29T07:12:29;96187.56;;;22.84;77.20
57594;BME280;43423;46.510;6.686;2023-07-29T07:14:54;96184.88;;;23.01;77.13
57594;BME280;43423;46.510;6.686;2023-07-29T07:17:20;96189.28;;;23.12;75.00
57594;BME280;43423;46.510;6.686;2023-07-29T07:19:46;96183.53;;;22.62;76.85
57594;BME280;43423;46.510;6.686;2023-07-29T07:22:11;96187.63;;;23.09;75.85
57594;BME280;43423;46.510;6.686;2023-07-29T07:24:37;96193.06;;;23.07;75.97
57594;BME280;43423;46.510;6.686;2023-07-29T07:27:03;96187.00;;;23.18;76.41
57594;BME280;43423;46.510;6.686;2023-07-29T07:29:28;96184.88;;;23.01;76.86
57594;BME280;43423;46.510;6.686;2023-07-29T07:31:56;96174.81;;;22.91;78.58
57594;BME280;43423;46.510;6.686;2023-07-29T07:34:21;96162.44;;;23.01;75.44
57594;BME280;43423;46.510;6.686;2023-07-29T07:36:47;96159.50;;;22.51;79.25
57594;BME280;43423;46.510;6.686;2023-07-29T07:39:13;96171.31;;;22.27;79.96
57594;BME280;43423;46.510;6.686;2023-07-29T07:41:39;96185.13;;;22.33;78.48
57594;BME280;43423;46.510;6.686;2023-07-29T07:44:05;96183.81;;;22.34;75.72
57594;BME280;43423;46.510;6.686;2023-07-29T07:46:31;96168.97;;;22.56;79.27
57594;BME280;43423;46.510;6.686;2023-07-29T07:48:56;96171.72;;;22.71;75.57
57594;BME280;43423;46.510;6.686;2023-07-29T07:51:22;96169.97;;;22.91;76.85
57594;BME280;43423;46.510;6.686;2023-07-29T07:53:48;96171.28;;;23.23;76.97
57594;BME280;43423;46.510;6.686;2023-07-29T07:56:14;96167.81;;;23.39;71.56
57594;BME280;43423;46.510;6.686;2023-07-29T07:58:40;96179.22;;;23.66;74.57
57594;BME280;43423;46.510;6.686;2023-07-29T08:01:07;96184.31;;;23.28;75.07
57594;BME280;43423;46.510;6.686;2023-07-29T08:03:33;96188.34;;;23.17;76.82
57594;BME280;43423;46.510;6.686;2023-07-29T08:05:59;96198.09;;;23.08;77.59
57594;BME280;43423;46.510;6.686;2023-07-29T08:08:26;96202.09;;;22.90;77.02
57594;BME280;43423;46.510;6.686;2023-07-29T08:10:53;96198.56;;;22.34;74.38
57594;BME280;43423;46.510;6.686;2023-07-29T08:13:20;96206.81;;;22.17;75.71
57594;BME280;43423;46.510;6.686;2023-07-29T08:15:47;96205.13;;;22.29;78.64
57594;BME280;43423;46.510;6.686;2023-07-29T08:18:13;96205.44;;;22.41;75.85
57594;BME280;43423;46.510;6.686;2023-07-29T08:20:39;96217.94;;;22.47;75.99
57594;BME280;43423;46.510;6.686;2023-07-29T08:23:04;96210.22;;;22.71;76.65
57594;BME280;43423;46.510;6.686;2023-07-29T08:25:30;96204.63;;;22.63;75.77
57594;BME280;43423;46.510;6.686;2023-07-29T08:27:56;96204.78;;;22.73;75.81
57594;BME280;43423;46.510;6.686;2023-07-29T08:30:22;96219.75;;;22.68;74.50
57594;BME280;43423;46.510;6.686;2023-07-29T08:32:47;96220.16;;;22.56;77.17
57594;BME280;43423;46.510;6.686;2023-07-29T08:35:13;96216.00;;;22.65;76.28
57594;BME280;43423;46.510;6.686;2023-07-29T08:37:39;96221.41;;;22.71;75.50
57594;BME280;43423;46.510;6.686;2023-07-29T08:40:05;96222.84;;;22.24;74.93
57594;BME280;43423;46.510;6.686;2023-07-29T08:42:32;96223.72;;;22.49;75.34
57594;BME280;43423;46.510;6.686;2023-07-29T08:45:04;96223.50;;;22.63;74.14
57594;BME280;43423;46.510;6.686;2023-07-29T08:47:31;96222.28;;;22.33;77.07
57594;BME280;43423;46.510;6.686;2023-07-29T08:49:58;96210.91;;;22.23;76.80
57594;BME280;43423;46.510;6.686;2023-07-29T08:52:25;96205.88;;;22.07;74.45
57594;BME280;43423;46.510;6.686;2023-07-29T08:54:52;96205.88;;;22.22;75.38
57594;BME280;43423;46.510;6.686;2023-07-29T08:57:19;96204.22;;;21.88;78.08
57594;BME280;43423;46.510;6.686;2023-07-29T08:59:45;96186.28;;;22.14;77.46
57594;BME280;43423;46.510;6.686;2023-07-29T09:02:11;96182.56;;;21.96;81.34
57594;BME280;43423;46.510;6.686;2023-07-29T09:04:37;96194.13;;;21.93;85.90
57594;BME280;43423;46.510;6.686;2023-07-29T09:07:04;96203.81;;;22.30;85.70
57594;BME280;43423;46.510;6.686;2023-07-29T09:09:30;96218.75;;;22.25;83.36
57594;BME280;43423;46.510;6.686;2023-07-29T09:11:56;96216.47;;;22.39;83.38
57594;BME280;43423;46.510;6.686;2023-07-29T09:14:23;96229.09;;;22.63;86.13
57594;BME280;43423;46.510;6.686;2023-07-29T09:16:49;96225.72;;;22.72;81.93
57594;BME280;43423;46.510;6.686;2023-07-29T09:19:15;96210.34;;;22.88;84.62
57594;BME280;43423;46.510;6.686;2023-07-29T09:21:41;96215.16;;;22.95;86.72
57594;BME280;43423;46.510;6.686;2023-07-29T09:24:07;96217.72;;;23.08;81.71
57594;BME280;43423;46.510;6.686;2023-07-29T09:26:33;96217.50;;;22.66;85.07
57594;BME280;43423;46.510;6.686;2023-07-29T09:29:00;96227.88;;;22.96;82.18
57594;BME280;43423;46.510;6.686;2023-07-29T09:31:27;96212.81;;;23.17;82.60
57594;BME280;43423;46.510;6.686;2023-07-29T09:34:00;96220.84;;;23.20;79.13
57594;BME280;43423;46.510;6.686;2023-07-29T09:36:26;96225.91;;;23.14;76.03
57594;BME280;43423;46.510;6.686;2023-07-29T09:38:53;96223.69;;;23.12;80.70
57594;BME280;43423;46.510;6.686;2023-07-29T09:41:22;96213.22;;;23.13;77.65
57594;BME280;43423;46.510;6.686;2023-07-29T09:43:48;96209.75;;;23.30;78.71
57594;BME280;43423;46.510;6.686;2023-07-29T09:46:16;96211.75;;;23.37;77.94
57594;BME280;43423;46.510;6.686;2023-07-29T09:48:42;96206.81;;;23.20;76.38
57594;BME280;43423;46.510;6.686;2023-07-29T09:51:15;96217.88;;;23.18;74.67
57594;BME280;43423;46.510;6.686;2023-07-29T09:53:46;96225.66;;;23.27;73.58
57594;BME280;43423;46.510;6.686;2023-07-29T09:56:12;96234.25;;;23.29;73.68
57594;BME280;43423;46.510;6.686;2023-07-29T09:58:38;96236.25;;;23.36;71.67
57594;BME280;43423;46.510;6.686;2023-07-29T10:01:05;96232.13;;;23.05;72.23
57594;BME280;43423;46.510;6.686;2023-07-29T10:03:33;96222.94;;;23.12;71.60
57594;BME280;43423;46.510;6.686;2023-07-29T10:06:01;96222.44;;;22.98;73.06
57594;BME280;43423;46.510;6.686;2023-07-29T10:08:30;96226.56;;;22.97;73.54
57594;BME280;43423;46.510;6.686;2023-07-29T10:10:59;96237.81;;;22.82;76.20
57594;BME280;43423;46.510;6.686;2023-07-29T10:13:26;96241.84;;;22.48;76.19
57594;BME280;43423;46.510;6.686;2023-07-29T10:15:53;96250.44;;;22.50;72.11
57594;BME280;43423;46.510;6.686;2023-07-29T10:18:22;96247.19;;;22.77;73.72
57594;BME280;43423;46.510;6.686;2023-07-29T10:20:50;96241.25;;;22.57;71.46
57594;BME280;43423;46.510;6.686;2023-07-29T10:23:18;96239.03;;;22.56;71.85
57594;BME280;43423;46.510;6.686;2023-07-29T10:25:47;96249.50;;;22.48;71.51
57594;BME280;43423;46.510;6.686;2023-07-29T10:28:15;96251.19;;;22.43;73.80
57594;BME280;43423;46.510;6.686;2023-07-29T10:30:44;96245.06;;;22.37;74.17
57594;BME280;43423;46.510;6.686;2023-07-29T10:33:10;96243.75;;;22.31;74.97
57594;BME280;43423;46.510;6.686;2023-07-29T10:35:36;96248.63;;;22.30;74.98
57594;BME280;43423;46.510;6.686;2023-07-29T10:38:03;96253.97;;;22.51;76.64
57594;BME280;43423;46.510;6.686;2023-07-29T10:40:52;96256.22;;;22.52;77.66
57594;BME280;43423;46.510;6.686;2023-07-29T10:43:26;96270.56;;;22.72;79.32
57594;BME280;43423;46.510;6.686;2023-07-29T10:45:52;96271.50;;;22.67;78.86
57594;BME280;43423;46.510;6.686;2023-07-29T10:51:34;96264.41;;;22.66;77.89
57594;BME280;43423;46.510;6.686;2023-07-29T10:54:02;96251.00;;;22.41;77.17
57594;BME280;43423;46.510;6.686;2023-07-29T10:56:33;96257.53;;;22.51;78.30
57594;BME280;43423;46.510;6.686;2023-07-29T11:01:54;96264.75;;;22.85;79.88
57594;BME280;43423;46.510;6.686;2023-07-29T11:15:04;96269.53;;;22.37;81.74
57594;BME280;43423;46.510;6.686;2023-07-29T11:17:43;96269.03;;;22.86;81.96
57594;BME280;43423;46.510;6.686;2023-07-29T11:20:09;96258.63;;;22.56;80.92
57594;BME280;43423;46.510;6.686;2023-07-29T11:22:36;96263.09;;;22.67;78.81
57594;BME280;43423;46.510;6.686;2023-07-29T11:25:03;96264.53;;;22.91;80.42
57594;BME280;43423;46.510;6.686;2023-07-29T11:27:30;96270.56;;;23.20;80.54
57594;BME280;43423;46.510;6.686;2023-07-29T11:29:57;96260.28;;;23.22;72.46
57594;BME280;43423;46.510;6.686;2023-07-29T11:32:24;96263.50;;;23.11;72.84
57594;BME280;43423;46.510;6.686;2023-07-29T11:34:50;96279.63;;;23.03;74.49
57594;BME280;43423;46.510;6.686;2023-07-29T11:37:15;96271.66;;;22.84;71.54
57594;BME280;43423;46.510;6.686;2023-07-29T11:39:41;96265.31;;;22.76;73.88
57594;BME280;43423;46.510;6.686;2023-07-29T11:42:10;96275.31;;;23.09;74.13
57594;BME280;43423;46.510;6.686;2023-07-29T11:44:36;96280.50;;;23.13;73.48
57594;BME280;43423;46.510;6.686;2023-07-29T11:47:02;96282.03;;;23.06;73.96
57594;BME280;43423;46.510;6.686;2023-07-29T11:49:32;96285.00;;;23.16;75.09
57594;BME280;43423;46.510;6.686;2023-07-29T11:51:58;96295.69;;;23.10;73.72
57594;BME280;43423;46.510;6.686;2023-07-29T11:54:24;96296.31;;;22.78;75.21
57594;BME280;43423;46.510;6.686;2023-07-29T11:56:50;96289.97;;;22.77;75.10
57594;BME280;43423;46.510;6.686;2023-07-29T11:59:16;96286.09;;;22.57;75.77
57594;BME280;43423;46.510;6.686;2023-07-29T12:01:41;96284.44;;;22.54;76.18
57594;BME280;43423;46.510;6.686;2023-07-29T12:04:07;96288.75;;;22.40;78.17
57594;BME280;43423;46.510;6.686;2023-07-29T12:06:33;96290.19;;;22.64;77.54
57594;BME280;43423;46.510;6.686;2023-07-29T12:09:00;96292.09;;;22.54;80.21
57594;BME280;43423;46.510;6.686;2023-07-29T12:11:25;96288.38;;;22.36;80.34
57594;BME280;43423;46.510;6.686;2023-07-29T12:13:53;96303.16;;;22.29;83.41
57594;BME280;43423;46.510;6.686;2023-07-29T12:16:19;96303.13;;;22.37;84.10
57594;BME280;43423;46.510;6.686;2023-07-29T12:18:44;96308.72;;;22.06;90.08
57594;BME280;43423;46.510;6.686;2023-07-29T12:21:10;96315.28;;;22.09;90.81
57594;BME280;43423;46.510;6.686;2023-07-29T12:23:36;96313.59;;;22.36;91.40
57594;BME280;43423;46.510;6.686;2023-07-29T12:26:01;96317.72;;;22.12;92.69
57594;BME280;43423;46.510;6.686;2023-07-29T12:28:28;96317.34;;;22.08;94.68
57594;BME280;43423;46.510;6.686;2023-07-29T12:30:57;96320.66;;;21.99;95.47
57594;BME280;43423;46.510;6.686;2023-07-29T12:33:30;96321.03;;;22.03;94.63
57594;BME280;43423;46.510;6.686;2023-07-29T12:35:55;96325.88;;;21.95;95.88
57594;BME280;43423;46.510;6.686;2023-07-29T12:38:22;96316.38;;;21.90;95.50
57594;BME280;43423;46.510;6.686;2023-07-29T12:40:47;96324.56;;;22.03;91.80
57594;BME280;43423;46.510;6.686;2023-07-29T12:43:13;96327.34;;;21.73;93.62
57594;BME280;43423;46.510;6.686;2023-07-29T12:45:38;96326.28;;;22.14;92.99
57594;BME280;43423;46.510;6.686;2023-07-29T12:48:08;96323.03;;;21.72;91.22
57594;BME280;43423;46.510;6.686;2023-07-29T12:50:33;96316.59;;;22.08;94.93
57594;BME280;43423;46.510;6.686;2023-07-29T12:52:59;96316.16;;;21.96;91.77
57594;BME280;43423;46.510;6.686;2023-07-29T12:55:25;96317.69;;;22.27;90.54
57594;BME280;43423;46.510;6.686;2023-07-29T12:57:50;96318.22;;;22.56;91.49
57594;BME280;43423;46.510;6.686;2023-07-29T13:00:16;96305.69;;;22.65;91.01
57594;BME280;43423;46.510;6.686;2023-07-29T13:02:42;96313.53;;;22.67;89.01
57594;BME280;43423;46.510;6.686;2023-07-29T13:05:11;96312.09;;;22.27;91.98
57594;BME280;43423;46.510;6.686;2023-07-29T13:07:41;96322.00;;;22.21;87.52
57594;BME280;43423;46.510;6.686;2023-07-29T13:10:08;96321.56;;;21.86;86.52
57594;BME280;43423;46.510;6.686;2023-07-29T13:12:34;96329.78;;;21.17;90.87
57594;BME280;43423;46.510;6.686;2023-07-29T13:14:59;96333.13;;;21.24;95.22
57594;BME280;43423;46.510;6.686;2023-07-29T13:17:25;96333.59;;;21.35;94.57
57594;BME280;43423;46.510;6.686;2023-07-29T13:19:50;96332.66;;;21.40;93.03